Time;durP1;ratioP1;P1;durP2;ratioP2;P2;SDS_P1;SDS_P2;PMS_P1;PMS_P2;Temp;Humidity;BMP_temperature;BMP_pressure;BME280_temperature;BME280_humidity;BME280_pressure;Samples;Min_cycle;Max_cycle;Signal;HPM_P1;HPM_P2
2021/07/27 00:01:16;;;;;;;10.70;9.70;;;;;;;;;;5073968;28;20505;-72
2021/07/27 00:03:42;;;;;;;11.57;10.37;;;;;;;;;;5073297;28;20469;-73
2021/07/27 00:06:09;;;;;;;12.00;10.87;;;;;;;;;;5074731;28;20425;-71
2021/07/27 00:08:35;;;;;;;11.50;10.43;;;;;;;;;;5073676;28;20413;-72
2021/07/27 00:11:02;;;;;;;13.23;11.80;;;;;;;;;;5073656;28;20442;-70
2021/07/27 00:13:28;;;;;;;11.80;10.60;;;;;;;;;;5073562;28;21067;-71
2021/07/27 00:15:54;;;;;;;13.90;12.50;;;;;;;;;;5075190;28;20410;-74
2021/07/27 00:18:20;;;;;;;10.57;9.50;;;;;;;;;;5079004;28;20749;-68
2021/07/27 00:20:46;;;;;;;10.87;9.83;;;;;;;;;;5073684;28;20415;-72
2021/07/27 00:23:12;;;;;;;13.57;10.40;;;;;;;;;;5074045;28;20480;-70
2021/07/27 00:25:39;;;;;;;12.17;11.07;;;;;;;;;;5078338;28;20411;-69
2021/07/27 00:28:05;;;;;;;11.10;10.00;;;;;;;;;;5073056;28;20415;-73
2021/07/27 00:30:31;;;;;;;11.40;10.20;;;;;;;;;;5073467;28;20446;-70
2021/07/27 00:32:57;;;;;;;12.20;10.93;;;;;;;;;;5073693;28;20426;-71
2021/07/27 00:35:24;;;;;;;11.43;10.20;;;;;;;;;;5073601;28;20417;-70
2021/07/27 00:38:07;;;;;;;12.60;11.30;;;;;;;;;;5073065;28;21211;-71
2021/07/27 00:40:33;;;;;;;14.40;12.13;;;;;;;;;;5073601;28;20411;-73
2021/07/27 00:43:03;;;;;;;12.43;11.07;;;;;;;;;;5073194;28;20445;-72
2021/07/27 00:45:29;;;;;;;12.37;11.07;;;;;;;;;;5073284;28;20761;-69
2021/07/27 00:47:55;;;;;;;11.13;10.03;;;;;;;;;;5072863;28;20425;-70
2021/07/27 00:50:21;;;;;;;11.87;10.63;;;;;;;;;;5073017;28;20508;-73
2021/07/27 00:52:47;;;;;;;11.23;10.23;;;;;;;;;;5073184;28;20435;-71
2021/07/27 00:55:14;;;;;;;12.70;11.40;;;;;;;;;;5073077;28;20452;-71
2021/07/27 00:57:40;;;;;;;11.03;9.93;;;;;;;;;;5072685;28;20502;-70
2021/07/27 01:00:06;;;;;;;12.93;11.50;;;;;;;;;;5073124;28;20414;-69
2021/07/27 01:02:32;;;;;;;11.37;10.17;;;;;;;;;;5073164;28;20473;-69
2021/07/27 01:05:01;;;;;;;11.80;10.60;;;;;;;;;;5073096;28;20949;-71
2021/07/27 01:07:27;;;;;;;12.80;11.50;;;;;;;;;;5080224;28;20410;-71
2021/07/27 01:09:53;;;;;;;12.63;11.00;;;;;;;;;;5072801;28;20930;-69
2021/07/27 01:12:19;;;;;;;11.33;10.23;;;;;;;;;;5072830;28;20427;-71
2021/07/27 01:14:45;;;;;;;11.07;10.13;;;;;;;;;;5072892;28;20410;-71
2021/07/27 01:17:11;;;;;;;11.03;10.00;;;;;;;;;;5076489;28;20437;-71
2021/07/27 01:20:01;;;;;;;10.83;9.73;;;;;;;;;;5077303;28;20412;-73
2021/07/27 01:39:16;;;;;;;9.63;8.70;;;;;;;;;;5076221;28;20421;-71
2021/07/27 01:44:08;;;;;;;12.33;9.80;;;;;;;;;;5076496;28;20941;-72
2021/07/27 01:46:35;;;;;;;9.97;9.07;;;;;;;;;;5076153;28;20537;-73
2021/07/27 01:49:01;;;;;;;9.87;8.90;;;;;;;;;;5075314;28;20933;-72
2021/07/27 01:51:27;;;;;;;10.77;9.77;;;;;;;;;;5076474;28;20411;-73
2021/07/27 01:53:54;;;;;;;9.50;8.70;;;;;;;;;;5076515;28;20488;-72
2021/07/27 01:56:21;;;;;;;10.90;9.80;;;;;;;;;;5070665;28;20422;-73
2021/07/27 01:58:48;;;;;;;10.57;9.57;;;;;;;;;;5075969;28;20546;-69
2021/07/27 02:01:15;;;;;;;8.77;7.97;;;;;;;;;;5076252;28;20500;-70
2021/07/27 02:03:41;;;;;;;9.57;8.77;;;;;;;;;;5076047;28;20511;-71
2021/07/27 02:06:07;;;;;;;10.83;9.83;;;;;;;;;;5076026;28;20424;-72
2021/07/27 02:08:33;;;;;;;11.57;10.50;;;;;;;;;;5075796;28;20420;-70
2021/07/27 02:11:02;;;;;;;11.00;9.87;;;;;;;;;;5076145;28;20407;-69
2021/07/27 02:13:33;;;;;;;16.90;10.20;;;;;;;;;;5076354;28;20434;-71
2021/07/27 02:15:59;;;;;;;11.47;10.47;;;;;;;;;;5074735;28;20418;-70
2021/07/27 02:18:26;;;;;;;11.10;10.00;;;;;;;;;;5074467;28;20434;-69
2021/07/27 02:20:52;;;;;;;10.77;9.80;;;;;;;;;;5076100;28;20518;-73
2021/07/27 02:23:18;;;;;;;11.87;10.80;;;;;;;;;;5075802;28;20441;-72
2021/07/27 02:25:44;;;;;;;12.43;11.33;;;;;;;;;;5075930;28;20424;-72
2021/07/27 02:28:13;;;;;;;11.70;10.60;;;;;;;;;;5074554;28;20790;-72
2021/07/27 02:30:43;;;;;;;13.20;10.87;;;;;;;;;;5075637;28;20932;-72
2021/07/27 02:33:09;;;;;;;12.37;11.27;;;;;;;;;;5076182;28;20437;-69
2021/07/27 02:35:36;;;;;;;11.17;10.27;;;;;;;;;;5076115;28;20952;-72
2021/07/27 02:38:02;;;;;;;11.50;10.40;;;;;;;;;;5075341;28;20964;-73
2021/07/27 02:40:28;;;;;;;12.83;11.73;;;;;;;;;;5075393;28;20419;-73
2021/07/27 02:42:54;;;;;;;12.60;11.43;;;;;;;;;;5075573;28;20430;-69
2021/07/27 02:45:23;;;;;;;11.50;10.43;;;;;;;;;;5074931;28;21000;-70
2021/07/27 02:47:49;;;;;;;13.70;10.70;;;;;;;;;;5075197;28;20411;-71
2021/07/27 02:50:16;;;;;;;12.77;11.37;;;;;;;;;;5075562;28;20495;-72
2021/07/27 02:52:42;;;;;;;13.20;11.80;;;;;;;;;;5075079;28;20612;-73
2021/07/27 02:55:08;;;;;;;14.33;12.90;;;;;;;;;;5075337;28;20411;-72
2021/07/27 02:57:34;;;;;;;12.80;11.60;;;;;;;;;;5074906;28;20422;-72
2021/07/27 03:00:00;;;;;;;12.60;11.40;;;;;;;;;;5075460;28;20414;-70
2021/07/27 03:02:31;;;;;;;13.70;12.50;;;;;;;;;;5075626;28;20756;-71
2021/07/27 03:04:57;;;;;;;13.60;12.40;;;;;;;;;;5074887;28;20497;-70
2021/07/27 03:07:32;;;;;;;12.53;11.43;;;;;;;;;;5075114;28;20411;-73
2021/07/27 03:10:17;;;;;;;12.40;11.20;;;;;;;;;;5075265;28;20497;-70
2021/07/27 03:12:43;;;;;;;13.93;10.80;;;;;;;;;;5071150;28;20473;-70
2021/07/27 03:15:10;;;;;;;12.47;11.23;;;;;;;;;;5074931;28;20514;-72
2021/07/27 03:17:36;;;;;;;12.03;10.97;;;;;;;;;;5074640;28;20420;-70
2021/07/27 03:20:09;;;;;;;12.77;11.57;;;;;;;;;;5074938;28;20468;-71
2021/07/27 03:22:35;;;;;;;12.90;11.80;;;;;;;;;;5074599;28;20433;-67
2021/07/27 03:25:01;;;;;;;13.13;11.93;;;;;;;;;;5074462;28;20454;-69
2021/07/27 03:27:27;;;;;;;12.87;11.77;;;;;;;;;;5074194;28;20414;-68
2021/07/27 03:29:53;;;;;;;14.27;12.97;;;;;;;;;;5074348;28;20418;-69
2021/07/27 03:32:19;;;;;;;13.40;12.20;;;;;;;;;;5074603;28;20434;-71
2021/07/27 03:34:45;;;;;;;13.50;12.30;;;;;;;;;;5074376;28;20900;-73
2021/07/27 03:37:11;;;;;;;15.00;13.50;;;;;;;;;;5074155;28;20500;-71
2021/07/27 03:39:37;;;;;;;14.87;13.47;;;;;;;;;;5074486;28;20761;-69
2021/07/27 03:42:04;;;;;;;14.13;12.83;;;;;;;;;;5074746;28;20450;-69
2021/07/27 03:44:30;;;;;;;15.60;14.10;;;;;;;;;;5074338;28;20465;-68
2021/07/27 03:47:07;;;;;;;13.77;12.50;;;;;;;;;;5073736;28;20892;-71
2021/07/27 03:49:33;;;;;;;12.83;11.73;;;;;;;;;;5074768;28;20417;-69
2021/07/27 03:52:02;;;;;;;14.17;12.87;;;;;;;;;;5073968;28;20414;-70
2021/07/27 03:54:29;;;;;;;14.53;12.97;;;;;;;;;;5074144;28;20502;-73
2021/07/27 03:56:55;;;;;;;12.37;11.30;;;;;;;;;;5073652;28;20421;-71
2021/07/27 03:59:21;;;;;;;14.60;13.10;;;;;;;;;;5074315;28;20525;-72
2021/07/27 04:01:47;;;;;;;14.10;12.70;;;;;;;;;;5074039;28;20446;-71
2021/07/27 04:04:13;;;;;;;13.70;12.20;;;;;;;;;;5073773;28;20489;-69
2021/07/27 04:06:39;;;;;;;14.03;12.83;;;;;;;;;;5073461;28;20418;-70
2021/07/27 04:09:05;;;;;;;13.67;12.40;;;;;;;;;;5074312;28;20418;-71
2021/07/27 04:11:31;;;;;;;15.03;13.70;;;;;;;;;;5073585;28;20414;-71
2021/07/27 04:13:57;;;;;;;13.37;12.07;;;;;;;;;;5074192;28;20430;-71
2021/07/27 04:16:23;;;;;;;14.60;13.30;;;;;;;;;;5073842;28;20418;-70
2021/07/27 04:18:49;;;;;;;14.47;13.07;;;;;;;;;;5073462;28;20410;-72
2021/07/27 04:21:15;;;;;;;14.20;12.80;;;;;;;;;;5073571;28;20411;-72
2021/07/27 04:23:41;;;;;;;14.70;13.20;;;;;;;;;;5073406;28;20461;-70
2021/07/27 04:26:07;;;;;;;13.97;12.60;;;;;;;;;;5073471;28;20880;-73
2021/07/27 04:28:33;;;;;;;13.90;12.67;;;;;;;;;;5073326;28;20452;-70
2021/07/27 04:30:59;;;;;;;14.30;13.00;;;;;;;;;;5073513;28;20406;-71
2021/07/27 04:33:28;;;;;;;14.03;12.73;;;;;;;;;;5073205;28;20429;-70
2021/07/27 04:35:54;;;;;;;13.77;12.47;;;;;;;;;;5073316;28;20449;-72
2021/07/27 04:38:23;;;;;;;13.90;12.50;;;;;;;;;;5073133;28;20767;-71
2021/07/27 04:40:51;;;;;;;13.30;12.00;;;;;;;;;;5073094;28;20450;-70
2021/07/27 04:43:17;;;;;;;13.53;12.23;;;;;;;;;;5066986;28;20426;-71
2021/07/27 04:45:43;;;;;;;13.10;12.00;;;;;;;;;;5073019;28;20498;-72
2021/07/27 04:48:09;;;;;;;14.00;12.80;;;;;;;;;;5073079;28;20409;-72
2021/07/27 04:50:38;;;;;;;13.10;11.83;;;;;;;;;;5072760;28;20899;-72
2021/07/27 04:53:06;;;;;;;13.40;11.93;;;;;;;;;;5072995;28;20418;-71
2021/07/27 04:55:32;;;;;;;11.93;10.83;;;;;;;;;;5073025;28;20547;-70
2021/07/27 04:57:58;;;;;;;14.97;12.10;;;;;;;;;;5072464;28;20887;-73
2021/07/27 05:00:24;;;;;;;13.50;12.10;;;;;;;;;;5073153;28;20421;-71
2021/07/27 05:02:50;;;;;;;12.07;10.87;;;;;;;;;;5073108;28;20436;-72
2021/07/27 05:05:16;;;;;;;12.17;11.03;;;;;;;;;;5072938;28;20504;-71
2021/07/27 05:07:46;;;;;;;13.70;12.40;;;;;;;;;;5072710;28;20945;-70
2021/07/27 05:10:12;;;;;;;13.53;12.30;;;;;;;;;;5072969;28;20907;-72
2021/07/27 05:12:38;;;;;;;16.73;13.50;;;;;;;;;;5073244;28;20496;-72
2021/07/27 05:15:05;;;;;;;14.63;13.20;;;;;;;;;;5073016;28;20493;-74
2021/07/27 05:17:31;;;;;;;14.93;13.43;;;;;;;;;;5072419;28;20968;-70
2021/07/27 05:19:57;;;;;;;13.70;12.40;;;;;;;;;;5072929;28;20442;-71
2021/07/27 05:22:23;;;;;;;15.10;13.70;;;;;;;;;;5072807;28;20518;-71
2021/07/27 05:24:50;;;;;;;15.17;13.67;;;;;;;;;;5073022;28;20465;-73
2021/07/27 05:27:16;;;;;;;15.17;13.53;;;;;;;;;;5072328;28;20407;-71
2021/07/27 05:29:42;;;;;;;15.13;13.73;;;;;;;;;;5072785;28;20441;-72
2021/07/27 05:32:08;;;;;;;15.83;14.23;;;;;;;;;;5072425;28;20431;-72
2021/07/27 05:34:34;;;;;;;15.87;14.37;;;;;;;;;;5073227;28;20907;-70
2021/07/27 05:37:00;;;;;;;14.57;13.27;;;;;;;;;;5072608;28;20418;-74
2021/07/27 05:39:26;;;;;;;15.90;14.30;;;;;;;;;;5072919;28;20414;-72
2021/07/27 05:41:52;;;;;;;17.63;15.70;;;;;;;;;;5072324;28;20474;-72
2021/07/27 05:44:23;;;;;;;15.77;14.23;;;;;;;;;;5072674;28;20454;-71
2021/07/27 05:46:50;;;;;;;17.03;15.33;;;;;;;;;;5072366;28;20406;-72
2021/07/27 05:49:15;;;;;;;17.27;15.47;;;;;;;;;;5072729;28;20403;-70
2021/07/27 05:51:41;;;;;;;17.77;15.97;;;;;;;;;;5072478;28;20413;-71
2021/07/27 05:54:08;;;;;;;17.03;15.23;;;;;;;;;;5072458;28;20444;-70
2021/07/27 05:56:34;;;;;;;16.50;14.80;;;;;;;;;;5072270;28;20427;-71
2021/07/27 05:59:00;;;;;;;19.77;16.77;;;;;;;;;;5072669;28;20555;-70
2021/07/27 06:01:26;;;;;;;19.80;16.27;;;;;;;;;;5072652;28;20411;-74
2021/07/27 06:03:52;;;;;;;17.97;16.10;;;;;;;;;;5074078;28;20480;-73
2021/07/27 06:06:18;;;;;;;19.17;17.10;;;;;;;;;;5076962;28;20429;-72
2021/07/27 06:08:43;;;;;;;19.03;17.00;;;;;;;;;;5075599;28;20418;-72
2021/07/27 06:11:11;;;;;;;18.53;16.53;;;;;;;;;;5076085;28;20414;-69
2021/07/27 06:13:37;;;;;;;18.50;16.60;;;;;;;;;;5075959;28;20466;-72
2021/07/27 06:16:04;;;;;;;20.63;18.47;;;;;;;;;;5075890;28;21698;-75
2021/07/27 06:18:30;;;;;;;18.20;16.30;;;;;;;;;;5075660;28;20506;-72
2021/07/27 06:20:56;;;;;;;18.40;16.40;;;;;;;;;;5076150;28;20422;-70
2021/07/27 06:23:22;;;;;;;19.23;16.60;;;;;;;;;;5075513;28;20434;-71
2021/07/27 06:25:48;;;;;;;18.23;16.20;;;;;;;;;;5075749;28;20817;-72
2021/07/27 06:28:14;;;;;;;19.10;17.17;;;;;;;;;;5075282;28;20420;-73
2021/07/27 06:30:40;;;;;;;19.60;16.57;;;;;;;;;;5075506;28;20422;-73
2021/07/27 06:33:06;;;;;;;17.57;14.40;;;;;;;;;;5075952;28;20753;-71
2021/07/27 06:35:32;;;;;;;17.50;15.57;;;;;;;;;;5076122;28;20456;-72
2021/07/27 06:37:58;;;;;;;19.20;15.87;;;;;;;;;;5074999;28;20414;-69
2021/07/27 06:40:24;;;;;;;17.33;15.47;;;;;;;;;;5075722;28;20426;-70
2021/07/27 06:42:50;;;;;;;16.63;14.93;;;;;;;;;;5070575;28;20441;-72
2021/07/27 06:45:16;;;;;;;15.93;14.33;;;;;;;;;;5068380;28;20888;-71
2021/07/27 06:47:42;;;;;;;15.20;13.60;;;;;;;;;;5071096;28;20426;-70
2021/07/27 06:50:08;;;;;;;15.50;14.00;;;;;;;;;;5067938;28;20461;-73
2021/07/27 06:52:35;;;;;;;16.30;14.60;;;;;;;;;;5078563;28;20464;-71
2021/07/27 06:55:01;;;;;;;15.77;14.20;;;;;;;;;;5071437;28;20437;-71
2021/07/27 06:57:27;;;;;;;16.00;14.13;;;;;;;;;;5070942;28;20506;-70
2021/07/27 06:59:53;;;;;;;15.50;14.00;;;;;;;;;;5070690;28;20418;-69
2021/07/27 07:02:19;;;;;;;14.93;13.43;;;;;;;;;;5071945;28;20531;-72
2021/07/27 07:04:45;;;;;;;15.30;13.80;;;;;;;;;;5070952;28;20466;-71
2021/07/27 07:07:11;;;;;;;15.73;14.00;;;;;;;;;;5072636;28;20453;-72
2021/07/27 07:09:37;;;;;;;15.27;13.70;;;;;;;;;;5071240;28;20438;-70
2021/07/27 07:12:08;;;;;;;15.87;14.20;;;;;;;;;;5070063;28;20521;-69
2021/07/27 07:14:33;;;;;;;15.17;13.57;;;;;;;;;;5070634;28;20414;-70
2021/07/27 07:16:59;;;;;;;16.30;14.70;;;;;;;;;;5070783;28;20492;-71
2021/07/27 07:19:27;;;;;;;15.40;13.23;;;;;;;;;;5071094;28;21085;-72
2021/07/27 07:21:53;;;;;;;13.60;12.20;;;;;;;;;;5069465;28;20472;-73
2021/07/27 07:24:19;;;;;;;16.57;14.97;;;;;;;;;;5070763;28;20466;-71
2021/07/27 07:26:46;;;;;;;15.17;13.67;;;;;;;;;;5070461;28;20802;-70
2021/07/27 07:29:12;;;;;;;16.17;14.23;;;;;;;;;;5071038;28;20446;-71
2021/07/27 07:31:38;;;;;;;14.97;13.47;;;;;;;;;;5071030;28;20417;-73
2021/07/27 07:34:04;;;;;;;14.17;12.73;;;;;;;;;;5070739;28;20517;-70
2021/07/27 07:36:30;;;;;;;15.13;13.73;;;;;;;;;;5070652;28;20441;-70
2021/07/27 07:38:56;;;;;;;13.30;12.07;;;;;;;;;;5077357;28;20453;-72
2021/07/27 07:41:24;;;;;;;14.03;12.63;;;;;;;;;;5070539;28;20888;-70
2021/07/27 07:43:50;;;;;;;14.77;13.27;;;;;;;;;;5070358;28;20470;-71
2021/07/27 07:46:16;;;;;;;15.53;14.03;;;;;;;;;;5070592;28;20491;-71
2021/07/27 07:48:42;;;;;;;14.77;13.40;;;;;;;;;;5069899;28;20421;-71
2021/07/27 07:51:08;;;;;;;13.37;12.07;;;;;;;;;;5070366;28;20441;-72
2021/07/27 07:53:34;;;;;;;12.67;11.47;;;;;;;;;;5070036;28;20430;-70
2021/07/27 07:56:00;;;;;;;14.23;11.37;;;;;;;;;;5070084;28;20406;-72
2021/07/27 07:58:26;;;;;;;12.80;11.63;;;;;;;;;;5069854;28;20414;-72
2021/07/27 08:00:52;;;;;;;13.30;12.00;;;;;;;;;;5070144;28;20460;-70
2021/07/27 08:03:18;;;;;;;14.40;13.00;;;;;;;;;;5069920;28;20933;-71
2021/07/27 08:05:44;;;;;;;14.03;12.73;;;;;;;;;;5069861;28;20491;-70
2021/07/27 08:08:10;;;;;;;13.77;12.47;;;;;;;;;;5070316;28;20442;-71
2021/07/27 08:10:36;;;;;;;12.60;11.40;;;;;;;;;;5069882;28;20415;-69
2021/07/27 08:13:03;;;;;;;13.80;12.30;;;;;;;;;;5069744;28;20433;-70
2021/07/27 08:15:29;;;;;;;15.10;13.13;;;;;;;;;;5069965;28;20460;-70
2021/07/27 08:17:55;;;;;;;14.63;12.73;;;;;;;;;;5069590;28;20437;-70
2021/07/27 08:20:22;;;;;;;14.03;12.73;;;;;;;;;;5069684;28;20771;-74
2021/07/27 08:22:48;;;;;;;15.10;13.50;;;;;;;;;;5069431;28;20442;-72
2021/07/27 08:25:18;;;;;;;14.50;13.00;;;;;;;;;;5069108;28;20469;-74
2021/07/27 08:27:45;;;;;;;13.10;11.70;;;;;;;;;;5067130;28;20411;-73
2021/07/27 08:30:13;;;;;;;14.00;12.57;;;;;;;;;;5069439;28;20506;-71
2021/07/27 08:32:43;;;;;;;13.57;12.27;;;;;;;;;;5069381;28;20431;-71
2021/07/27 08:35:09;;;;;;;13.67;12.37;;;;;;;;;;5069446;28;20453;-73
2021/07/27 08:37:35;;;;;;;15.70;13.10;;;;;;;;;;5069178;28;20489;-73
2021/07/27 08:40:01;;;;;;;13.60;12.20;;;;;;;;;;5069736;28;20520;-70
2021/07/27 08:42:29;;;;;;;15.63;14.10;;;;;;;;;;5069577;28;20441;-70
2021/07/27 08:44:57;;;;;;;14.47;13.17;;;;;;;;;;5069318;28;20465;-69
2021/07/27 08:47:24;;;;;;;14.83;13.17;;;;;;;;;;5069129;28;20447;-70
2021/07/27 08:49:50;;;;;;;15.37;13.93;;;;;;;;;;5069328;28;20438;-70
2021/07/27 08:52:17;;;;;;;14.67;13.00;;;;;;;;;;5069411;28;20430;-74
2021/07/27 08:54:43;;;;;;;14.30;12.90;;;;;;;;;;5069233;28;20414;-72
2021/07/27 08:57:14;;;;;;;12.80;11.50;;;;;;;;;;5069135;28;20875;-71
2021/07/27 08:59:40;;;;;;;13.27;12.07;;;;;;;;;;5069176;28;20756;-72
2021/07/27 09:02:06;;;;;;;13.20;11.80;;;;;;;;;;5069201;28;20443;-71
2021/07/27 09:04:32;;;;;;;12.30;11.00;;;;;;;;;;5068541;28;21386;-68
2021/07/27 09:07:02;;;;;;;12.33;10.60;;;;;;;;;;5069448;28;20911;-70
2021/07/27 09:09:30;;;;;;;10.97;9.87;;;;;;;;;;5068341;28;20423;-70
2021/07/27 09:11:56;;;;;;;11.30;9.70;;;;;;;;;;5068908;28;20966;-72
2021/07/27 09:14:23;;;;;;;11.23;10.23;;;;;;;;;;5069047;28;20421;-69
2021/07/27 09:16:54;;;;;;;11.60;10.47;;;;;;;;;;5068527;28;20418;-72
2021/07/27 09:19:21;;;;;;;11.43;10.33;;;;;;;;;;5069214;28;20410;-72
2021/07/27 09:21:47;;;;;;;12.60;11.27;;;;;;;;;;5068820;28;20418;-70
2021/07/27 09:24:23;;;;;;;12.30;11.20;;;;;;;;;;5068984;28;20485;-69
2021/07/27 09:26:56;;;;;;;11.83;10.73;;;;;;;;;;5068144;28;21162;-72
2021/07/27 09:29:23;;;;;;;12.30;11.23;;;;;;;;;;5064523;28;20413;-70
2021/07/27 09:31:52;;;;;;;11.70;10.63;;;;;;;;;;5068886;28;20631;-72
2021/07/27 09:34:19;;;;;;;11.50;10.40;;;;;;;;;;5068998;28;21146;-69
2021/07/27 09:36:45;;;;;;;10.57;9.67;;;;;;;;;;5069891;28;20457;-70
2021/07/27 09:39:11;;;;;;;10.50;9.60;;;;;;;;;;5072830;28;20422;-71
2021/07/27 09:41:37;;;;;;;10.80;9.90;;;;;;;;;;5072730;28;20419;-70
2021/07/27 09:44:07;;;;;;;10.57;9.67;;;;;;;;;;5071072;28;21151;-71
2021/07/27 09:46:33;;;;;;;11.47;10.50;;;;;;;;;;5072831;28;20414;-70
2021/07/27 09:49:00;;;;;;;11.60;10.50;;;;;;;;;;5072796;28;20428;-71
2021/07/27 09:51:30;;;;;;;11.97;10.83;;;;;;;;;;5072679;28;20450;-68
2021/07/27 09:53:57;;;;;;;13.53;12.10;;;;;;;;;;5072926;28;20536;-71
2021/07/27 09:56:23;;;;;;;13.50;12.30;;;;;;;;;;5067427;28;20406;-69
2021/07/27 09:58:49;;;;;;;13.50;12.20;;;;;;;;;;5072275;28;20424;-69
2021/07/27 10:01:22;;;;;;;15.60;14.00;;;;;;;;;;5072680;28;20414;-67
2021/07/27 10:03:58;;;;;;;13.77;12.47;;;;;;;;;;5078879;28;20546;-67
2021/07/27 10:06:33;;;;;;;13.90;12.60;;;;;;;;;;5076722;28;20867;-71
2021/07/27 10:09:01;;;;;;;12.80;11.60;;;;;;;;;;5069948;28;20489;-73
2021/07/27 10:11:37;;;;;;;15.20;13.20;;;;;;;;;;5072171;28;20414;-68
2021/07/27 10:14:08;;;;;;;13.40;12.00;;;;;;;;;;5072151;28;20938;-71
2021/07/27 10:16:35;;;;;;;13.40;12.00;;;;;;;;;;5071733;28;20533;-72
2021/07/27 10:19:20;;;;;;;12.40;10.90;;;;;;;;;;5059765;28;20833;-70
2021/07/27 10:21:47;;;;;;;10.73;9.73;;;;;;;;;;5071870;28;20896;-71
2021/07/27 10:24:19;;;;;;;12.40;11.20;;;;;;;;;;5072075;28;20462;-71
2021/07/27 10:26:46;;;;;;;11.70;10.57;;;;;;;;;;5070204;28;20426;-69
2021/07/27 10:29:12;;;;;;;13.13;11.87;;;;;;;;;;5071806;28;20791;-70
2021/07/27 10:31:45;;;;;;;13.23;12.03;;;;;;;;;;5058130;28;20774;-69
2021/07/27 10:34:14;;;;;;;15.00;13.60;;;;;;;;;;5061895;28;20502;-69
2021/07/27 10:36:41;;;;;;;15.27;13.77;;;;;;;;;;5069778;28;20487;-70
2021/07/27 10:39:10;;;;;;;14.70;13.30;;;;;;;;;;5060500;28;20443;-70
2021/07/27 10:41:37;;;;;;;12.97;11.80;;;;;;;;;;5070531;28;20783;-72
2021/07/27 10:44:07;;;;;;;13.73;12.60;;;;;;;;;;5077322;28;20878;-71
2021/07/27 10:46:37;;;;;;;12.07;11.07;;;;;;;;;;5071183;28;20430;-72
2021/07/27 10:49:03;;;;;;;12.57;11.47;;;;;;;;;;5070268;28;21183;-69
2021/07/27 10:51:33;;;;;;;11.33;10.23;;;;;;;;;;5070991;28;20415;-68
2021/07/27 10:54:00;;;;;;;11.80;10.57;;;;;;;;;;5068041;28;20461;-74
2021/07/27 10:56:31;;;;;;;12.43;11.33;;;;;;;;;;5071758;28;20489;-69
2021/07/27 10:58:57;;;;;;;12.27;11.00;;;;;;;;;;5071074;28;20434;-73
2021/07/27 11:01:29;;;;;;;12.57;11.27;;;;;;;;;;5073341;28;20457;-70
2021/07/27 11:03:56;;;;;;;11.03;10.03;;;;;;;;;;5071197;28;21225;-70
2021/07/27 11:06:22;;;;;;;13.37;11.77;;;;;;;;;;5070107;28;20450;-73
2021/07/27 11:08:48;;;;;;;12.13;11.03;;;;;;;;;;5070783;28;20499;-70
2021/07/27 11:11:17;;;;;;;11.10;10.07;;;;;;;;;;5083545;28;20417;-72
2021/07/27 11:13:53;;;;;;;11.27;9.73;;;;;;;;;;5081289;28;20846;-71
2021/07/27 11:16:19;;;;;;;9.47;8.57;;;;;;;;;;5071103;28;20611;-70
2021/07/27 11:18:45;;;;;;;8.87;8.10;;;;;;;;;;5091093;28;20437;-71
2021/07/27 11:21:11;;;;;;;10.37;9.37;;;;;;;;;;5076007;28;20450;-71
2021/07/27 11:23:37;;;;;;;10.57;9.57;;;;;;;;;;5070949;28;21322;-76
2021/07/27 11:26:04;;;;;;;9.60;8.80;;;;;;;;;;5070775;28;20415;-71
2021/07/27 11:28:37;;;;;;;9.10;8.30;;;;;;;;;;5074868;28;20419;-70
2021/07/27 11:31:23;;;;;;;10.30;9.30;;;;;;;;;;5070902;28;20775;-71
2021/07/27 11:33:49;;;;;;;10.57;9.67;;;;;;;;;;5070664;28;20443;-71
2021/07/27 11:36:20;;;;;;;10.63;9.70;;;;;;;;;;5088249;28;20425;-68
2021/07/27 11:38:46;;;;;;;10.70;9.80;;;;;;;;;;5072007;28;20433;-70
2021/07/27 11:41:14;;;;;;;11.63;10.53;;;;;;;;;;5076381;28;20429;-72
2021/07/27 11:43:41;;;;;;;11.77;10.67;;;;;;;;;;5083879;28;20434;-71
2021/07/27 11:46:12;;;;;;;9.73;8.90;;;;;;;;;;5078359;28;20456;-72
2021/07/27 11:48:38;;;;;;;10.63;9.60;;;;;;;;;;5076432;28;20415;-73
2021/07/27 11:51:05;;;;;;;10.43;9.43;;;;;;;;;;5090559;28;20439;-70
2021/07/27 11:53:32;;;;;;;9.80;9.00;;;;;;;;;;5081474;28;20523;-71
2021/07/27 11:55:58;;;;;;;11.87;10.80;;;;;;;;;;5070036;28;20540;-72
2021/07/27 11:58:28;;;;;;;8.80;8.00;;;;;;;;;;5069970;28;20445;-69
2021/07/27 12:00:58;;;;;;;9.07;8.27;;;;;;;;;;5065495;28;20419;-71
2021/07/27 12:03:24;;;;;;;8.50;7.80;;;;;;;;;;5079444;28;20852;-74
2021/07/27 12:05:50;;;;;;;11.20;10.20;;;;;;;;;;5081731;28;20504;-72
2021/07/27 12:08:17;;;;;;;11.27;10.07;;;;;;;;;;5089934;28;20421;-70
2021/07/27 12:10:43;;;;;;;9.90;9.10;;;;;;;;;;5078054;28;20423;-73
2021/07/27 12:13:09;;;;;;;8.30;7.60;;;;;;;;;;5071236;28;20491;-72
2021/07/27 12:15:35;;;;;;;8.53;7.73;;;;;;;;;;5071306;28;20427;-73
2021/07/27 12:18:01;;;;;;;10.43;9.43;;;;;;;;;;5069351;28;20466;-71
2021/07/27 12:20:27;;;;;;;9.80;9.00;;;;;;;;;;5069825;28;20458;-69
2021/07/27 12:22:53;;;;;;;10.37;9.37;;;;;;;;;;5069471;28;21294;-72
2021/07/27 12:25:19;;;;;;;10.10;9.10;;;;;;;;;;5069215;28;20497;-70
2021/07/27 12:27:46;;;;;;;11.13;10.23;;;;;;;;;;5069583;28;20433;-71
2021/07/27 12:30:12;;;;;;;12.80;11.50;;;;;;;;;;5069554;28;20964;-69
2021/07/27 12:32:38;;;;;;;11.60;10.53;;;;;;;;;;5069186;28;20904;-71
2021/07/27 12:35:05;;;;;;;11.60;10.57;;;;;;;;;;5069476;28;20509;-73
2021/07/27 12:37:31;;;;;;;10.60;9.60;;;;;;;;;;5068943;28;20495;-70
2021/07/27 12:39:57;;;;;;;11.70;10.60;;;;;;;;;;5077351;28;20425;-72
2021/07/27 12:42:23;;;;;;;11.70;10.70;;;;;;;;;;5085479;28;20464;-72
2021/07/27 12:44:49;;;;;;;10.97;9.37;;;;;;;;;;5073518;28;20462;-71
2021/07/27 12:47:15;;;;;;;10.60;9.70;;;;;;;;;;5068786;28;20430;-70
2021/07/27 12:49:41;;;;;;;10.67;9.77;;;;;;;;;;5069677;28;20415;-69
2021/07/27 12:52:10;;;;;;;9.30;8.50;;;;;;;;;;5069707;28;20820;-70
2021/07/27 12:54:37;;;;;;;9.57;8.77;;;;;;;;;;5069776;28;20429;-73
2021/07/27 12:57:03;;;;;;;9.53;8.73;;;;;;;;;;5073407;28;20426;-71
2021/07/27 12:59:33;;;;;;;9.83;9.13;;;;;;;;;;5089625;28;20425;-72
2021/07/27 13:01:59;;;;;;;8.60;7.90;;;;;;;;;;5073246;28;20479;-74
2021/07/27 13:04:25;;;;;;;10.63;9.53;;;;;;;;;;5072139;28;20498;-72
2021/07/27 13:06:51;;;;;;;9.63;8.83;;;;;;;;;;5068572;28;20458;-70
2021/07/27 13:09:17;;;;;;;9.93;9.10;;;;;;;;;;5069109;28;20450;-70
2021/07/27 13:11:43;;;;;;;9.30;8.50;;;;;;;;;;5068343;28;20414;-70
2021/07/27 13:14:09;;;;;;;10.33;9.43;;;;;;;;;;5069240;28;20418;-71
2021/07/27 13:16:36;;;;;;;11.00;10.10;;;;;;;;;;5067040;28;20545;-72
2021/07/27 13:19:02;;;;;;;10.07;9.27;;;;;;;;;;5068852;28;20943;-70
2021/07/27 13:21:28;;;;;;;13.80;9.50;;;;;;;;;;5068791;28;20780;-73
2021/07/27 13:23:55;;;;;;;9.00;8.30;;;;;;;;;;5068879;28;20502;-71
2021/07/27 13:26:21;;;;;;;10.70;9.63;;;;;;;;;;5069208;28;20410;-72
2021/07/27 13:28:47;;;;;;;11.23;10.23;;;;;;;;;;5068576;28;20772;-73
2021/07/27 13:31:13;;;;;;;10.60;9.63;;;;;;;;;;5068795;28;20422;-73
2021/07/27 13:33:39;;;;;;;10.13;9.33;;;;;;;;;;5067909;28;20446;-71
2021/07/27 13:36:06;;;;;;;10.80;9.80;;;;;;;;;;5069006;28;20426;-72
2021/07/27 13:38:33;;;;;;;10.13;9.23;;;;;;;;;;5070363;28;20426;-71
2021/07/27 13:40:59;;;;;;;9.30;8.43;;;;;;;;;;5072016;28;20516;-69
2021/07/27 13:43:26;;;;;;;10.60;9.50;;;;;;;;;;5076968;28;20970;-74
2021/07/27 13:45:52;;;;;;;9.40;8.60;;;;;;;;;;5068410;28;20972;-69
2021/07/27 13:48:18;;;;;;;9.80;9.00;;;;;;;;;;5073487;28;20771;-69
2021/07/27 13:50:44;;;;;;;9.63;8.83;;;;;;;;;;5071032;28;20429;-70
2021/07/27 13:53:10;;;;;;;10.30;9.30;;;;;;;;;;5071211;28;20442;-72
2021/07/27 13:55:36;;;;;;;10.13;9.23;;;;;;;;;;5086994;28;20449;-72
2021/07/27 13:58:02;;;;;;;10.47;9.23;;;;;;;;;;5070261;28;20468;-71
2021/07/27 14:00:28;;;;;;;9.43;8.53;;;;;;;;;;5070887;28;20448;-69
2021/07/27 14:02:54;;;;;;;9.47;8.47;;;;;;;;;;5059709;28;20482;-71
2021/07/27 14:05:22;;;;;;;9.50;8.70;;;;;;;;;;5077167;28;20908;-72
2021/07/27 14:07:48;;;;;;;8.53;7.53;;;;;;;;;;5066602;28;20801;-70
2021/07/27 14:10:14;;;;;;;8.60;7.80;;;;;;;;;;5081771;28;20487;-71
2021/07/27 14:12:41;;;;;;;10.10;9.20;;;;;;;;;;5069364;28;20461;-73
2021/07/27 14:15:07;;;;;;;9.37;8.47;;;;;;;;;;5081681;28;20430;-73
2021/07/27 14:17:34;;;;;;;8.60;7.87;;;;;;;;;;5072558;28;20907;-70
2021/07/27 14:20:01;;;;;;;8.70;8.00;;;;;;;;;;5074165;28;20516;-71
2021/07/27 14:22:27;;;;;;;9.80;8.90;;;;;;;;;;5072392;28;20462;-71
2021/07/27 14:24:53;;;;;;;10.43;9.53;;;;;;;;;;5071672;28;20488;-70
2021/07/27 14:27:19;;;;;;;9.07;8.27;;;;;;;;;;5071365;28;20791;-70
2021/07/27 14:29:46;;;;;;;9.70;8.90;;;;;;;;;;5072014;28;20415;-72
2021/07/27 14:32:12;;;;;;;9.43;8.63;;;;;;;;;;5076043;28;20503;-70
2021/07/27 14:34:40;;;;;;;9.80;8.97;;;;;;;;;;5071126;28;20508;-69
2021/07/27 14:37:07;;;;;;;10.37;9.47;;;;;;;;;;5071537;28;20425;-72
2021/07/27 14:39:33;;;;;;;10.80;9.70;;;;;;;;;;5072117;28;20422;-71